Altisurface de La Taillade

FR-0290 · Cantal, Alvernia-Rodano-Alpi, Francia

Storia di METAR FR-0290 · Altisurface de La Taillade

Di seguito sono riportati i METAR degli ultimi giorni. Seleziona un anno per sfogliare i METAR più vecchi, dall'anno 2007 in poi.

28 gennaio 2023

Tempo Codice Tempo metereologico Temp. Vista Base nuvolosa Vento METAR/SPECI
15:00
V
3 °C 10 km+ 3.300 ft 350° 350° 11 kt METAR LFLW 281400Z AUTO 35011KT 310V020 9999 BKN033 03/M04 Q1020 NOSIG
14:30
V
3 °C 10 km+ - 350° 350° 10 kt METAR LFLW 281330Z AUTO 35010KT 310V020 9999 FEW032 03/M03 Q1020 NOSIG
14:00
V
3 °C 10 km+ - 360° 360° 7 kt METAR LFLW 281300Z AUTO 36007KT 320V030 9999 FEW030 03/M03 Q1019 NOSIG
13:30
V
3 °C 10 km+ - 010° 010° 8 kt METAR LFLW 281230Z AUTO 01008KT 320V050 9999 FEW028 03/M04 Q1020 NOSIG
13:00
V
2 °C 10 km+ - 010° 010° 10 kt METAR LFLW 281200Z AUTO 01010KT 340V040 9999 SCT028 02/M04 Q1020 NOSIG
12:30
M
2 °C 10 km+ 2.900 ft 020° 020° 10 kt METAR LFLW 281130Z AUTO 02010KT 340V050 9999 BKN029 02/M04 Q1020 NOSIG
12:00
M
1 °C 10 km+ 2.900 ft 340° 340° 7 kt METAR LFLW 281100Z AUTO 34007KT 300V360 9999 OVC029 01/M04 Q1020 NOSIG
11:30
M
1 °C 10 km+ 2.900 ft 340° 340° 7 kt METAR LFLW 281030Z AUTO 34007KT 300V360 9999 BKN029 01/M04 Q1020 NOSIG
11:00
M
1 °C 10 km+ 2.800 ft Var Var 6 kt METAR LFLW 281000Z AUTO VRB06KT 9999 BKN028 01/M04 Q1020 NOSIG
10:30
V
0 °C 10 km+ - 320° 320° 5 kt METAR LFLW 280930Z AUTO 32005KT 280V340 9999 SCT028 M00/M05 Q1020 NOSIG
10:00
M
-1 °C 10 km+ 2.700 ft 320° 320° 7 kt METAR LFLW 280900Z AUTO 32007KT 9999 BKN027 M01/M05 Q1020 NOSIG
09:30
M
-1 °C 10 km+ 2.700 ft 290° 290° 6 kt METAR LFLW 280830Z AUTO 29006KT 260V320 9999 BKN027 M01/M04 Q1019 NOSIG
09:00
M
-2 °C 10 km+ 2.800 ft 310° 310° 7 kt METAR LFLW 280800Z AUTO 31007KT 9999 BKN028 M02/M05 Q1019 NOSIG
08:30
M
-2 °C 10 km+ 2.800 ft 310° 310° 6 kt METAR LFLW 280730Z AUTO 31006KT 9999 BKN028 M02/M05 Q1019 NOSIG
08:00
V
-4 °C 10 km+ - 330° 330° 4 kt METAR LFLW 280700Z AUTO 33004KT 290V360 9999 FEW023 M04/M06 Q1019 NOSIG
07:30
V
-3 °C 10 km+ - Var Var 2 kt METAR LFLW 280630Z AUTO VRB02KT 9999 FEW022 M03/M05 Q1019 NOSIG
07:00
V
-3 °C 10 km+ - 330° 330° 3 kt METAR LFLW 280600Z AUTO 33003KT 290V020 9999 SCT021 M03/M06 Q1018 NOSIG
06:30
V
-3 °C 10 km+ - 320° 320° 4 kt METAR LFLW 280530Z AUTO 32004KT 290V350 CAVOK M03/M05 Q1018
06:00
V
-3 °C 10 km+ - 330° 330° 7 kt METAR LFLW 280500Z AUTO 33007KT CAVOK M03/M05 Q1018
05:30
V
-3 °C 10 km+ - 340° 340° 9 kt METAR LFLW 280430Z AUTO 34009KT CAVOK M03/M05 Q1018
05:00
V
-2 °C 10 km+ - 330° 330° 8 kt METAR LFLW 280400Z AUTO 33008KT CAVOK M02/M05 Q1018
04:30
V
-2 °C 10 km+ - 320° 320° 8 kt METAR LFLW 280330Z AUTO 32008KT CAVOK M02/M05 Q1018
04:00
V
-2 °C 10 km+ - 320° 320° 9 kt METAR LFLW 280300Z AUTO 32009KT CAVOK M02/M05 Q1017
03:30
V
-2 °C 10 km+ - 330° 330° 9 kt METAR LFLW 280230Z AUTO 33009KT 9999 FEW034 M02/M04 Q1017
03:00
V
-2 °C 10 km+ - 330° 330° 9 kt METAR LFLW 280200Z AUTO 33009KT 9999 SCT031 M02/M04 Q1017
02:30
V
-2 °C 10 km+ - 320° 320° 9 kt METAR LFLW 280130Z AUTO 32009KT 9999 FEW017 M02/M04 Q1017
02:00
V
-1 °C 10 km+ - 320° 320° 8 kt METAR LFLW 280100Z AUTO 32008KT 9999 FEW018 M01/M04 Q1017
01:30
V
-2 °C 10 km+ - 330° 330° 9 kt METAR LFLW 280030Z AUTO 33009KT CAVOK M02/M04 Q1017
01:00
V
-2 °C 10 km+ - 330° 330° 8 kt METAR LFLW 280000Z AUTO 33008KT CAVOK M02/M05 Q1017
00:30
V
-1 °C 10 km+ - 320° 320° 7 kt METAR LFLW 272330Z AUTO 32007KT 290V350 CAVOK M01/M04 Q1017
00:00
V
-1 °C 10 km+ - 330° 330° 7 kt METAR LFLW 272300Z AUTO 33007KT 290V360 CAVOK M01/M04 Q1017

27 gennaio 2023

Tempo Codice Tempo metereologico Temp. Vista Base nuvolosa Vento METAR/SPECI
23:30
V
-1 °C 10 km+ - 330° 330° 7 kt METAR LFLW 272230Z AUTO 33007KT CAVOK M01/M04 Q1017
23:00
V
-1 °C 10 km+ - 320° 320° 5 kt METAR LFLW 272200Z AUTO 32005KT 260V350 CAVOK M01/M04 Q1017
22:30
V
-1 °C 10 km+ - 330° 330° 4 kt METAR LFLW 272130Z AUTO 33004KT 240V040 CAVOK M01/M04 Q1017
22:00
V
0 °C 10 km+ - 310° 310° 5 kt METAR LFLW 272100Z AUTO 31005KT 270V010 CAVOK M00/M04 Q1017 NOSIG
21:30
V
-2 °C 10 km+ - 330° 330° 5 kt METAR LFLW 272030Z AUTO 33005KT CAVOK M02/M05 Q1017 NOSIG
21:00
V
-1 °C 10 km+ - 340° 340° 10 kt METAR LFLW 272000Z AUTO 34010KT 310V010 CAVOK M01/M05 Q1017 NOSIG
20:30
V
-1 °C 10 km+ - 340° 340° 9 kt METAR LFLW 271930Z AUTO 34009KT 310V020 CAVOK M01/M04 Q1017 NOSIG
20:00
V
-1 °C 10 km+ - 320° 320° 8 kt METAR LFLW 271900Z AUTO 32008KT CAVOK M01/M04 Q1017 NOSIG
19:30
V
-1 °C 10 km+ - 330° 330° 10 kt METAR LFLW 271830Z AUTO 33010KT CAVOK M01/M03 Q1016 NOSIG
19:00
V
0 °C 10 km+ - 320° 320° 10 kt METAR LFLW 271800Z AUTO 32010KT CAVOK M00/M03 Q1016 NOSIG
18:30
V
0 °C 10 km+ - 330° 330° 10 kt METAR LFLW 271730Z AUTO 33010KT 300V360 CAVOK M00/M03 Q1016 NOSIG
18:00
V
0 °C 10 km+ - 330° 330° 10 kt METAR LFLW 271700Z AUTO 33010KT CAVOK 00/M03 Q1016 NOSIG
17:30
V
0 °C 10 km+ - 330° 330° 11 kt METAR LFLW 271630Z AUTO 33011KT 300V360 CAVOK 00/M04 Q1016 NOSIG
17:00
V
1 °C 10 km+ - 350° 350° 14 kt METAR LFLW 271600Z AUTO 35014KT CAVOK 01/M04 Q1015 NOSIG
16:30
V
2 °C 10 km+ - 340° 340° 11 kt METAR LFLW 271530Z AUTO 34011KT 300V360 9999 FEW026 02/M03 Q1015 NOSIG
16:00
V
2 °C 10 km+ - 340° 340° 15 kt METAR LFLW 271500Z AUTO 34015KT CAVOK 02/M04 Q1015 NOSIG
15:30
V
2 °C 10 km+ - 350° 350° 15 kt METAR LFLW 271430Z AUTO 35015KT 320V020 9999 FEW027 02/M03 Q1015 NOSIG
15:00
V
3 °C 10 km+ - 340° 340° 12 kt METAR LFLW 271400Z AUTO 34012KT 9999 FEW027 03/M03 Q1015 NOSIG
14:30
V
2 °C 10 km+ - 340° 340° 14 kt METAR LFLW 271330Z AUTO 34014KT 9999 FEW026 02/M03 Q1014 NOSIG
14:00
V
3 °C 10 km+ - 340° 340° 14 kt METAR LFLW 271300Z AUTO 34014KT 9999 FEW028 03/M03 Q1014 NOSIG
13:30
V
3 °C 10 km+ - 350° 350° 12 kt METAR LFLW 271230Z AUTO 35012KT 310V020 9999 SCT029 03/M03 Q1015 NOSIG
13:00
M
3 °C 10 km+ 2.900 ft 350° 350° 11 kt METAR LFLW 271200Z AUTO 35011KT 310V030 9999 BKN029 BKN035 03/M03 Q1015 NOSIG
12:30
V
2 °C 10 km+ - 330° 330° 9 kt METAR LFLW 271130Z AUTO 33009KT 9999 SCT032 02/M03 Q1015 NOSIG
12:00
V
2 °C 10 km+ - 340° 340° 10 kt METAR LFLW 271100Z AUTO 34010KT 300V360 CAVOK 02/M02 Q1015 NOSIG
11:30
V
0 °C 10 km+ - Var Var 2 kt METAR LFLW 271030Z AUTO VRB02KT CAVOK 00/M03 Q1016 BECMG 34012KT
11:00
V
-2 °C 10 km+ - 110° 110° 3 kt METAR LFLW 271000Z AUTO 11003KT 070V140 CAVOK M02/M05 Q1016 BECMG 34012KT
10:30
V
-2 °C 10 km+ 22.000 ft Var 000° 0 kt METAR LFLW 270930Z AUTO 00000KT 9999 FEW017 BKN220 BKN240 M02/M05 Q1016 BECMG 34012KT
10:00
V
-3 °C 10 km+ - Var Var 2 kt METAR LFLW 270900Z AUTO VRB02KT CAVOK M03/M05 Q1016 BECMG 34012KT
09:30
V
-5 °C 9 km 3.700 ft Var Var 2 kt METAR LFLW 270830Z AUTO VRB02KT 9000 BKN037 BKN230 M05/M07 Q1015 BECMG 34012KT
09:00
V
-7 °C 10 km+ 4.000 ft Var Var 3 kt METAR LFLW 270800Z AUTO VRB03KT 9999 BKN040 M07/M08 Q1015 TEMPO BKN009
08:30
V
-8 °C 10 km+ - Var Var 2 kt METAR LFLW 270730Z AUTO VRB02KT 9999 -SN FEW040 SCT210 M08/M09 Q1015 TEMPO BKN009
08:00
V
-8 °C 8 km 19.000 ft 120° 120° 5 kt METAR LFLW 270700Z AUTO 12005KT 090V150 8000 FEW043 BKN190 M08/M09 Q1015 TEMPO BKN009
07:30
V
-7 °C 10 km+ - 080° 080° 4 kt METAR LFLW 270630Z AUTO 08004KT CAVOK M07/M08 Q1015 TEMPO BKN009
07:00
V
-7 °C 10 km+ - 090° 090° 4 kt METAR LFLW 270600Z AUTO 09004KT 9999 SCT044 SCT200 M07/M09 Q1015 TEMPO BKN009
06:30
V
-8 °C 10 km+ 20.000 ft 100° 100° 4 kt METAR LFLW 270530Z AUTO 10004KT 9999 FEW047 OVC200 M08/M08 Q1015
06:00
V
-7 °C 10 km+ 20.000 ft Var Var 2 kt METAR LFLW 270500Z AUTO VRB02KT 9999 FEW046 BKN200 M07/M09 Q1015
05:30
V
-6 °C 10 km+ - 210° 210° 3 kt METAR LFLW 270430Z AUTO 21003KT 170V240 CAVOK M06/M08 Q1014
05:00
V
-6 °C 10 km+ - 220° 220° 4 kt METAR LFLW 270400Z AUTO 22004KT CAVOK M06/M08 Q1015
04:30
V
-6 °C 10 km+ - Var Var 3 kt METAR LFLW 270330Z AUTO VRB03KT CAVOK M06/M07 Q1014
04:00
V
-6 °C 10 km+ - Var Var 2 kt METAR LFLW 270300Z AUTO VRB02KT CAVOK M06/M08 Q1015
03:30
V
-6 °C 10 km+ 19.000 ft 240° 240° 2 kt METAR LFLW 270230Z AUTO 24002KT 9999 FEW010 BKN190 M06/M07 Q1015
03:00
V
-5 °C 10 km+ 20.000 ft Var Var 2 kt METAR LFLW 270200Z AUTO VRB02KT 9999 FEW011 SCT180 BKN200 M05/M07 Q1015
02:30
M
-5 °C 10 km+ 1.100 ft Var Var 2 kt METAR LFLW 270130Z AUTO VRB02KT 9999 OVC011 M05/M06 Q1016
02:00
M
-5 °C 10 km+ 1.200 ft 240° 240° 2 kt METAR LFLW 270100Z AUTO 24002KT 9999 OVC012 M05/M06 Q1016
01:30
M
-5 °C 10 km+ 1.200 ft 260° 260° 2 kt METAR LFLW 270030Z AUTO 26002KT 9999 OVC012 M05/M06 Q1016
01:00
M
-5 °C 10 km+ 1.100 ft Var Var 2 kt METAR LFLW 270000Z AUTO VRB02KT 9999 OVC011 M05/M06 Q1016
00:30
M
-4 °C 10 km+ 1.000 ft 280° 280° 3 kt METAR LFLW 262330Z AUTO 28003KT 240V320 9999 OVC010 M04/M06 Q1016
00:00
M
-4 °C 10 km+ 1.000 ft Var Var 2 kt METAR LFLW 262300Z AUTO VRB02KT 9999 OVC010 M04/M06 Q1016

26 gennaio 2023

Tempo Codice Tempo metereologico Temp. Vista Base nuvolosa Vento METAR/SPECI
23:30
M
-4 °C 10 km+ 1.300 ft 220° 220° 3 kt METAR LFLW 262230Z AUTO 22003KT 190V250 9999 BKN013 M04/M05 Q1016
23:00
V
-5 °C 10 km+ - 210° 210° 3 kt METAR LFLW 262200Z AUTO 21003KT CAVOK M05/M06 Q1016
22:30
V
-4 °C 10 km+ - 230° 230° 3 kt METAR LFLW 262130Z AUTO 23003KT CAVOK M04/M06 Q1016
22:00
V
-4 °C 10 km+ 18.000 ft 250° 250° 3 kt METAR LFLW 262100Z AUTO 25003KT 9999 FEW016 OVC180 M04/M05 Q1017 TEMPO BKN012
21:30
M
-3 °C 10 km+ 1.600 ft 280° 280° 4 kt METAR LFLW 262030Z AUTO 28004KT 250V320 9999 OVC016 M03/M05 Q1017 TEMPO BKN012
21:00
M
-3 °C 10 km+ 1.500 ft 270° 270° 4 kt METAR LFLW 262000Z AUTO 27004KT 9999 OVC015 M03/M05 Q1017 TEMPO BKN012
20:30
M
-3 °C 10 km+ 1.500 ft Var Var 3 kt METAR LFLW 261930Z AUTO VRB03KT 9999 BKN015 OVC190 M03/M04 Q1017 TEMPO BKN012
20:00
V
-2 °C 10 km+ - 290° 290° 3 kt METAR LFLW 261900Z AUTO 29003KT 250V310 CAVOK M02/M04 Q1017 TEMPO BKN012
19:30
V
-2 °C 10 km+ - Var Var 3 kt METAR LFLW 261830Z AUTO VRB03KT CAVOK M02/M04 Q1017 TEMPO BKN012
19:00
V
-2 °C 10 km+ - Var Var 3 kt METAR LFLW 261800Z AUTO VRB03KT CAVOK M02/M04 Q1016 TEMPO BKN012
18:30
V
-1 °C 10 km+ - 280° 280° 4 kt METAR LFLW 261730Z AUTO 28004KT 250V310 CAVOK M01/M04 Q1016 TEMPO BKN012
18:00
V
-1 °C 10 km+ - 300° 300° 4 kt METAR LFLW 261700Z AUTO 30004KT 260V320 CAVOK M01/M03 Q1016 TEMPO BKN012
17:30
V
0 °C 10 km+ - 300° 300° 6 kt METAR LFLW 261630Z AUTO 30006KT CAVOK M00/M03 Q1016 TEMPO BKN012
17:00
V
0 °C 10 km+ - 300° 300° 6 kt METAR LFLW 261600Z AUTO 30006KT CAVOK 00/M03 Q1016 NOSIG
16:30
V
1 °C 10 km+ - 310° 310° 6 kt METAR LFLW 261530Z AUTO 31006KT 270V350 CAVOK 01/M03 Q1016 NOSIG
16:00
V
2 °C 10 km+ - 310° 310° 7 kt METAR LFLW 261500Z AUTO 31007KT 280V350 CAVOK 02/M03 Q1016 NOSIG
15:30
V
2 °C 10 km+ - 320° 320° 8 kt METAR LFLW 261430Z AUTO 32008KT 280V360 CAVOK 02/M04 Q1016 NOSIG
15:00
V
2 °C 10 km+ - 310° 310° 7 kt METAR LFLW 261400Z AUTO 31007KT 290V360 CAVOK 02/M04 Q1016 NOSIG
14:30
V
1 °C 10 km+ - 320° 320° 7 kt METAR LFLW 261330Z AUTO 32007KT 280V360 CAVOK 01/M04 Q1016 NOSIG
14:00
V
2 °C 10 km+ - 310° 310° 7 kt METAR LFLW 261300Z AUTO 31007KT 260V350 9999 SCT022 02/M04 Q1016 NOSIG
13:30
V
1 °C 10 km+ - 320° 320° 7 kt METAR LFLW 261230Z AUTO 32007KT 270V350 9999 SCT023 01/M03 Q1016 NOSIG
13:00
M
1 °C 10 km+ 2.100 ft 310° 310° 6 kt METAR LFLW 261200Z AUTO 31006KT 260V350 9999 BKN021 01/M03 Q1017 NOSIG
12:30
M
1 °C 10 km+ 1.900 ft 320° 320° 5 kt METAR LFLW 261130Z AUTO 32005KT 290V020 9999 OVC019 01/M03 Q1017 NOSIG
12:00
M
0 °C 10 km+ 1.700 ft Var Var 2 kt METAR LFLW 261100Z AUTO VRB02KT 9999 OVC017 00/M03 Q1017 NOSIG
11:30
M
0 °C 10 km+ 1.400 ft Var Var 3 kt METAR LFLW 261030Z AUTO VRB03KT 9999 BKN014 M00/M03 Q1018 BECMG SCT020
11:00
V
-1 °C 8 km - 100° 100° 3 kt METAR LFLW 261000Z AUTO 10003KT 060V130 8000 FEW014 M01/M02 Q1018 TEMPO BKN012
10:30
M
-1 °C 6 km - 100° 100° 3 kt METAR LFLW 260930Z AUTO 10003KT 6000 FEW010 M01/M03 Q1018 TEMPO BKN012
10:00
I
-2 °C 4,4 km 1.000 ft 090° 090° 4 kt METAR LFLW 260900Z AUTO 09004KT 4400 BR BKN010 M02/M03 Q1018 BECMG 9999 NSW
09:30
I
-2 °C 4,2 km 1.600 ft 100° 100° 4 kt METAR LFLW 260830Z AUTO 10004KT 4200 BR BKN016 M02/M03 Q1018 BECMG 9999 NSW
09:00
M
-2 °C 10 km+ 1.900 ft 300° 300° 3 kt METAR LFLW 260800Z AUTO 30003KT 250V330 9999 OVC019 M02/M03 Q1018 TEMPO 4000 BR BKN005

Noi e le terze parti seguiamo il tuo comportamento su internet con i cookie. Se continui, riteniamo che tu sia d'accordo con la nostra Politica sui cookie.